createdAt,value
2019-02-15T00:00:25.125Z,7.75
2019-02-15T00:01:25.093Z,7.67
2019-02-15T00:02:25.088Z,7.71
2019-02-15T00:03:25.084Z,7.63
2019-02-15T00:04:25.070Z,7.63
2019-02-15T00:05:25.066Z,7.67
2019-02-15T00:06:25.042Z,7.66
2019-02-15T00:07:25.030Z,7.45
2019-02-15T00:08:25.019Z,7.37
2019-02-15T00:09:25.021Z,7.35
2019-02-15T00:10:25.007Z,7.31
2019-02-15T00:11:24.981Z,7.24
2019-02-15T00:12:25.953Z,7.27
2019-02-15T00:13:24.959Z,7.26
2019-02-15T00:14:24.956Z,7.35
2019-02-15T00:15:24.965Z,7.41
2019-02-15T00:16:24.934Z,7.37
2019-02-15T00:17:24.920Z,7.31
2019-02-15T00:18:24.916Z,7.32
2019-02-15T00:19:24.897Z,7.41
2019-02-15T00:20:24.909Z,7.38
2019-02-15T00:21:24.891Z,7.27
2019-02-15T00:22:24.860Z,7.22
2019-02-15T00:23:24.851Z,7.26
2019-02-15T00:24:24.845Z,7.27
2019-02-15T00:25:24.829Z,7.27
2019-02-15T00:26:24.824Z,7.27
2019-02-15T00:27:24.807Z,7.20
2019-02-15T00:28:24.789Z,7.27
2019-02-15T00:29:24.786Z,7.24
2019-02-15T00:30:24.768Z,7.15
2019-02-15T00:31:24.771Z,7.20
2019-02-15T00:32:24.748Z,7.08
2019-02-15T00:33:24.733Z,6.99
2019-02-15T00:34:24.726Z,7.04
2019-02-15T00:35:24.715Z,7.13
2019-02-15T00:36:24.707Z,7.12
2019-02-15T00:37:24.689Z,7.13
2019-02-15T00:38:24.691Z,7.19
2019-02-15T00:39:24.662Z,7.16
2019-02-15T00:40:24.655Z,7.24
2019-02-15T00:41:24.654Z,7.23
2019-02-15T00:42:24.639Z,7.15
2019-02-15T00:43:24.626Z,7.20
2019-02-15T00:44:24.614Z,7.15
2019-02-15T00:45:24.597Z,7.13
2019-02-15T00:46:24.608Z,7.16
2019-02-15T00:47:24.571Z,7.16
2019-02-15T00:48:24.558Z,7.15
2019-02-15T00:49:24.564Z,7.23
2019-02-15T00:50:24.535Z,7.17
2019-02-15T00:51:24.540Z,7.16
2019-02-15T00:52:32.357Z,7.13
2019-02-15T00:53:24.840Z,7.17
2019-02-15T00:54:24.830Z,7.15
2019-02-15T00:55:24.803Z,7.15
2019-02-15T00:56:24.854Z,7.15
2019-02-15T00:57:24.578Z,7.31
2019-02-15T00:58:24.753Z,7.12
2019-02-15T00:59:24.718Z,7.12
2019-02-15T01:00:24.792Z,7.24
2019-02-15T01:01:24.788Z,7.16
2019-02-15T01:02:24.695Z,7.17
2019-02-15T01:03:24.769Z,7.20
2019-02-15T01:04:24.696Z,7.15
2019-02-15T01:05:24.771Z,7.15
2019-02-15T01:06:24.673Z,7.12
2019-02-15T01:07:24.388Z,7.16
2019-02-15T01:08:24.640Z,7.05
2019-02-15T01:09:24.705Z,7.08
2019-02-15T01:10:24.642Z,7.15
2019-02-15T01:11:24.669Z,7.13
2019-02-15T01:12:24.633Z,6.99
2019-02-15T01:13:30.955Z,6.95
2019-02-15T01:14:25.599Z,6.91
2019-02-15T01:15:24.559Z,6.95
2019-02-15T01:16:24.605Z,6.81
2019-02-15T01:17:24.559Z,6.87
2019-02-15T01:18:24.262Z,6.84
2019-02-15T01:19:24.527Z,6.90
2019-02-15T01:20:24.518Z,6.87
2019-02-15T01:21:24.520Z,6.77
2019-02-15T01:22:24.500Z,6.87
2019-02-15T01:23:24.460Z,6.76
2019-02-15T01:24:24.500Z,6.72
2019-02-15T01:25:24.467Z,6.72
2019-02-15T01:26:24.425Z,6.86
2019-02-15T01:27:24.165Z,6.79
2019-02-15T01:28:24.134Z,6.86
2019-02-15T01:29:24.132Z,6.87
2019-02-15T01:30:24.085Z,6.86
2019-02-15T01:31:24.105Z,6.83
2019-02-15T01:32:24.112Z,6.81
2019-02-15T01:33:24.113Z,6.90
2019-02-15T01:34:24.039Z,6.87
2019-02-15T01:35:24.033Z,6.81
2019-02-15T01:36:24.088Z,6.90
2019-02-15T01:37:24.024Z,6.95
2019-02-15T01:38:24.312Z,6.83
2019-02-15T01:39:24.307Z,6.91
2019-02-15T01:40:23.997Z,6.94
2019-02-15T01:41:24.307Z,6.86
2019-02-15T01:42:24.245Z,6.84
2019-02-15T01:43:24.306Z,6.81
2019-02-15T01:44:24.256Z,6.87
2019-02-15T01:45:23.944Z,6.81
2019-02-15T01:46:24.262Z,6.86
2019-02-15T01:47:24.193Z,6.84
2019-02-15T01:48:24.287Z,6.84
2019-02-15T01:49:24.227Z,6.84
2019-02-15T01:50:24.136Z,6.84
2019-02-15T01:51:24.213Z,6.90
2019-02-15T01:52:24.183Z,6.87
2019-02-15T01:53:24.127Z,6.72
2019-02-15T01:54:24.151Z,6.73
2019-02-15T01:55:24.135Z,6.72
2019-02-15T01:56:24.118Z,6.71
2019-02-15T01:57:24.021Z,6.77
2019-02-15T01:58:23.792Z,6.73
2019-02-15T01:59:24.087Z,6.68
2019-02-15T02:00:24.088Z,6.76
2019-02-15T02:01:24.014Z,6.69
2019-02-15T02:02:24.048Z,6.69
2019-02-15T02:03:24.065Z,6.71
2019-02-15T02:04:24.037Z,6.65
2019-02-15T02:05:24.015Z,6.68
2019-02-15T02:06:24.013Z,6.63
2019-02-15T02:07:24.005Z,6.71
2019-02-15T02:08:23.991Z,6.65
2019-02-15T02:09:23.993Z,6.59
2019-02-15T02:10:23.960Z,6.59
2019-02-15T02:11:23.880Z,6.73
2019-02-15T02:12:23.629Z,6.72
2019-02-15T02:13:23.892Z,6.66
2019-02-15T02:14:23.892Z,6.68
2019-02-15T02:15:23.943Z,6.66
2019-02-15T02:16:23.844Z,6.69
2019-02-15T02:17:23.907Z,6.76
2019-02-15T02:18:23.883Z,6.66
2019-02-15T02:19:23.856Z,6.71
2019-02-15T02:20:23.838Z,6.76
2019-02-15T02:21:23.848Z,6.76
2019-02-15T02:22:23.817Z,6.71
2019-02-15T02:23:23.837Z,6.72
2019-02-15T02:24:23.863Z,6.71
2019-02-15T02:25:23.811Z,6.69
2019-02-15T02:26:23.832Z,6.77
2019-02-15T02:27:23.767Z,6.72
2019-02-15T02:28:23.446Z,6.73
2019-02-15T02:29:23.720Z,6.71
2019-02-15T02:30:23.744Z,6.81
2019-02-15T02:31:23.717Z,6.72
2019-02-15T02:32:23.714Z,6.68
2019-02-15T02:33:23.679Z,6.79
2019-02-15T02:34:23.681Z,6.68
2019-02-15T02:35:23.706Z,6.68
2019-02-15T02:36:23.639Z,6.71
2019-02-15T02:37:23.627Z,6.63
2019-02-15T02:38:23.665Z,6.73
2019-02-15T02:39:23.694Z,6.66
2019-02-15T02:40:23.667Z,6.66
2019-02-15T02:41:23.299Z,6.68
2019-02-15T02:42:23.599Z,6.69
2019-02-15T02:43:23.572Z,6.69
2019-02-15T02:44:23.547Z,6.66
2019-02-15T02:45:23.556Z,6.66
2019-02-15T02:46:23.485Z,6.68
2019-02-15T02:47:23.551Z,6.59
2019-02-15T02:48:23.519Z,6.54
2019-02-15T02:49:23.498Z,6.58
2019-02-15T02:50:23.466Z,6.56
2019-02-15T02:51:23.502Z,6.61
2019-02-15T02:52:23.494Z,6.51
2019-02-15T02:53:23.497Z,6.51
2019-02-15T02:54:23.470Z,6.41
2019-02-15T02:55:23.523Z,6.44
2019-02-15T02:56:23.434Z,6.50
2019-02-15T02:57:23.366Z,6.46
2019-02-15T02:58:23.376Z,6.36
2019-02-15T02:59:23.427Z,6.22
2019-02-15T03:00:32.914Z,6.47
2019-02-15T03:01:24.382Z,6.41
2019-02-15T03:02:23.064Z,6.41
2019-02-15T03:03:23.363Z,6.43
2019-02-15T03:04:23.392Z,6.50
2019-02-15T03:05:23.353Z,6.46
2019-02-15T03:06:23.319Z,6.48
2019-02-15T03:07:23.373Z,6.36
2019-02-15T03:08:23.328Z,6.48
2019-02-15T03:09:23.307Z,6.43
2019-02-15T03:10:23.325Z,6.48
2019-02-15T03:11:23.244Z,6.50
2019-02-15T03:12:23.270Z,6.53
2019-02-15T03:13:23.239Z,6.46
2019-02-15T03:14:23.221Z,6.44
2019-02-15T03:15:22.953Z,6.46
2019-02-15T03:16:23.232Z,6.51
2019-02-15T03:17:23.176Z,6.50
2019-02-15T03:18:23.177Z,6.50
2019-02-15T03:19:23.171Z,6.48
2019-02-15T03:20:30.816Z,6.47
2019-02-15T03:21:24.165Z,6.48
2019-02-15T03:22:23.130Z,6.47
2019-02-15T03:23:23.108Z,6.41
2019-02-15T03:24:23.117Z,6.40
2019-02-15T03:25:23.096Z,6.36
2019-02-15T03:26:23.123Z,6.26
2019-02-15T03:27:23.099Z,6.30
2019-02-15T03:28:23.038Z,6.26
2019-02-15T03:29:23.041Z,6.30
2019-02-15T03:30:23.041Z,6.30
2019-02-15T03:31:23.032Z,6.28
2019-02-15T03:32:22.988Z,6.21
2019-02-15T03:33:22.702Z,6.18
2019-02-15T03:34:23.006Z,6.25
2019-02-15T03:35:22.965Z,6.14
2019-02-15T03:36:23.003Z,6.18
2019-02-15T03:37:22.976Z,6.16
2019-02-15T03:38:22.995Z,6.16
2019-02-15T03:39:22.928Z,6.14
2019-02-15T03:40:22.937Z,6.14
2019-02-15T03:41:22.957Z,6.03
2019-02-15T03:42:22.927Z,6.00
2019-02-15T03:43:22.819Z,5.98
2019-02-15T03:44:22.961Z,6.06
2019-02-15T03:45:22.801Z,6.04
2019-02-15T03:46:22.870Z,6.03
2019-02-15T03:47:22.877Z,5.98
2019-02-15T03:48:22.792Z,6.01
2019-02-15T03:49:22.850Z,6.09
2019-02-15T03:50:22.847Z,6.00
2019-02-15T03:51:22.817Z,6.09
2019-02-15T03:52:22.792Z,6.16
2019-02-15T03:53:22.509Z,6.11
2019-02-15T03:54:22.715Z,6.03
2019-02-15T03:55:22.745Z,5.95
2019-02-15T03:56:22.754Z,6.01
2019-02-15T03:57:22.731Z,5.96
2019-02-15T03:58:22.716Z,6.03
2019-02-15T03:59:22.692Z,6.00
2019-02-15T04:00:22.716Z,6.01
2019-02-15T04:01:22.685Z,6.01
2019-02-15T04:02:22.748Z,6.00
2019-02-15T04:03:22.682Z,6.03
2019-02-15T04:04:22.634Z,5.98
2019-02-15T04:05:22.643Z,6.01
2019-02-15T04:06:22.637Z,5.95
2019-02-15T04:07:22.598Z,6.00
2019-02-15T04:08:22.600Z,6.11
2019-02-15T04:09:22.630Z,6.13
2019-02-15T04:10:22.604Z,6.21
2019-02-15T04:11:22.847Z,6.13
2019-02-15T04:12:22.570Z,6.11
2019-02-15T04:13:22.573Z,6.10
2019-02-15T04:14:32.282Z,6.10
2019-02-15T04:15:23.523Z,6.13
2019-02-15T04:16:22.789Z,6.07
2019-02-15T04:17:22.505Z,6.00
2019-02-15T04:18:22.576Z,5.93
2019-02-15T04:19:22.479Z,5.83
2019-02-15T04:20:22.457Z,5.98
2019-02-15T04:21:22.436Z,5.96
2019-02-15T04:22:22.451Z,6.13
2019-02-15T04:23:22.374Z,6.06
2019-02-15T04:24:22.417Z,6.07
2019-02-15T04:25:22.370Z,6.14
2019-02-15T04:26:22.429Z,6.03
2019-02-15T04:27:22.098Z,6.01
2019-02-15T04:28:22.383Z,6.09
2019-02-15T04:29:22.396Z,6.11
2019-02-15T04:30:22.363Z,6.07
2019-02-15T04:31:22.352Z,6.14
2019-02-15T04:32:22.350Z,6.16
2019-02-15T04:33:22.310Z,6.14
2019-02-15T04:34:22.250Z,6.11
2019-02-15T04:35:22.358Z,6.13
2019-02-15T04:36:22.347Z,6.14
2019-02-15T04:37:22.268Z,6.11
2019-02-15T04:38:22.256Z,6.13
2019-02-15T04:39:22.294Z,6.13
2019-02-15T04:40:22.226Z,6.25
2019-02-15T04:41:22.227Z,6.13
2019-02-15T04:42:22.244Z,6.13
2019-02-15T04:43:22.230Z,6.11
2019-02-15T04:44:22.209Z,6.10
2019-02-15T04:45:21.882Z,6.19
2019-02-15T04:46:22.202Z,6.21
2019-02-15T04:47:22.177Z,6.19
2019-02-15T04:48:22.213Z,6.11
2019-02-15T04:49:22.125Z,6.11
2019-02-15T04:50:22.149Z,6.09
2019-02-15T04:51:22.060Z,6.10
2019-02-15T04:52:22.124Z,6.13
2019-02-15T04:53:22.113Z,6.10
2019-02-15T04:54:22.048Z,6.10
2019-02-15T04:55:22.079Z,6.16
2019-02-15T04:56:22.100Z,6.10
2019-02-15T04:57:22.069Z,6.13
2019-02-15T04:58:21.985Z,6.10
2019-02-15T04:59:22.047Z,6.11
2019-02-15T05:00:22.023Z,6.16
2019-02-15T05:01:22.030Z,6.14
2019-02-15T05:02:21.982Z,6.16
2019-02-15T05:03:21.957Z,6.11
2019-02-15T05:04:21.664Z,6.13
2019-02-15T05:05:21.931Z,6.16
2019-02-15T05:06:21.943Z,6.10
2019-02-15T05:07:21.966Z,5.96
2019-02-15T05:08:21.962Z,5.92
2019-02-15T05:09:23.798Z,5.95
2019-02-15T05:10:21.929Z,5.95
2019-02-15T05:11:21.932Z,5.83
2019-02-15T05:12:21.821Z,5.83
2019-02-15T05:13:21.861Z,5.77
2019-02-15T05:14:21.843Z,5.73
2019-02-15T05:15:21.849Z,5.73
2019-02-15T05:16:21.830Z,5.74
2019-02-15T05:17:21.838Z,5.77
2019-02-15T05:18:21.792Z,5.77
2019-02-15T05:19:21.808Z,5.81
2019-02-15T05:20:21.798Z,5.85
2019-02-15T05:21:21.761Z,5.82
2019-02-15T05:22:21.754Z,5.81
2019-02-15T05:23:21.465Z,5.82
2019-02-15T05:24:21.748Z,5.91
2019-02-15T05:25:21.714Z,5.86
2019-02-15T05:26:21.715Z,5.95
2019-02-15T05:27:21.860Z,5.98
2019-02-15T05:28:21.743Z,5.98
2019-02-15T05:29:21.642Z,5.86
2019-02-15T05:30:21.637Z,5.91
2019-02-15T05:31:21.601Z,5.89
2019-02-15T05:32:21.728Z,5.96
2019-02-15T05:33:21.624Z,5.91
2019-02-15T05:34:21.602Z,5.89
2019-02-15T05:35:21.618Z,6.00
2019-02-15T05:36:21.814Z,6.01
2019-02-15T05:37:21.600Z,5.98
2019-02-15T05:38:21.661Z,5.86
2019-02-15T05:39:21.610Z,5.83
2019-02-15T05:40:21.547Z,5.81
2019-02-15T05:41:21.594Z,5.83
2019-02-15T05:42:21.242Z,5.88
2019-02-15T05:43:21.545Z,5.83
2019-02-15T05:44:21.511Z,5.82
2019-02-15T05:45:21.478Z,5.77
2019-02-15T05:46:21.507Z,5.83
2019-02-15T05:47:21.499Z,5.83
2019-02-15T05:48:21.498Z,5.82
2019-02-15T05:49:21.465Z,5.78
2019-02-15T05:50:21.473Z,5.85
2019-02-15T05:51:21.448Z,5.85
2019-02-15T05:52:21.388Z,5.89
2019-02-15T05:53:21.453Z,5.91
2019-02-15T05:54:21.402Z,5.71
2019-02-15T05:55:21.363Z,5.71
2019-02-15T05:56:21.585Z,5.77
2019-02-15T05:57:21.380Z,5.73
2019-02-15T05:58:21.379Z,5.66
2019-02-15T05:59:21.347Z,5.35
2019-02-15T06:00:21.338Z,5.30
2019-02-15T06:01:21.300Z,5.17
2019-02-15T06:02:21.306Z,5.16
2019-02-15T06:03:21.287Z,5.22
2019-02-15T06:04:21.239Z,5.20
2019-02-15T06:05:21.274Z,5.17
2019-02-15T06:06:21.263Z,5.19
2019-02-15T06:07:21.269Z,5.14
2019-02-15T06:08:21.274Z,5.23
2019-02-15T06:09:21.239Z,5.32
2019-02-15T06:10:20.927Z,5.31
2019-02-15T06:11:21.215Z,5.22
2019-02-15T06:12:21.191Z,5.28
2019-02-15T06:13:21.181Z,5.27
2019-02-15T06:14:21.172Z,5.30
2019-02-15T06:15:21.158Z,5.37
2019-02-15T06:16:21.117Z,5.38
2019-02-15T06:17:21.109Z,5.35
2019-02-15T06:18:21.079Z,5.35
2019-02-15T06:19:21.137Z,5.23
2019-02-15T06:20:21.130Z,5.25
2019-02-15T06:21:21.084Z,5.20
2019-02-15T06:22:21.096Z,5.07
2019-02-15T06:23:21.056Z,4.94
2019-02-15T06:24:21.028Z,4.79
2019-02-15T06:25:21.041Z,4.80
2019-02-15T06:26:21.033Z,4.76
2019-02-15T06:27:21.017Z,4.77
2019-02-15T06:28:21.051Z,4.73
2019-02-15T06:29:20.950Z,4.88
2019-02-15T06:30:20.969Z,4.88
2019-02-15T06:31:20.956Z,4.99
2019-02-15T06:32:20.940Z,5.04
2019-02-15T06:33:20.975Z,5.01
2019-02-15T06:34:20.954Z,5.05
2019-02-15T06:35:20.954Z,5.05
2019-02-15T06:36:20.941Z,5.02
2019-02-15T06:37:20.857Z,4.95
2019-02-15T06:38:20.914Z,4.89
2019-02-15T06:39:20.897Z,4.91
2019-02-15T06:40:20.556Z,4.92
2019-02-15T06:41:20.543Z,4.89
2019-02-15T06:42:20.527Z,4.89
2019-02-15T06:43:20.549Z,4.80
2019-02-15T06:44:20.509Z,4.72
2019-02-15T06:45:24.763Z,4.58
2019-02-15T06:46:20.496Z,4.70
2019-02-15T06:47:20.474Z,4.65
2019-02-15T06:48:20.460Z,4.69
2019-02-15T06:49:20.457Z,4.69
2019-02-15T06:50:20.444Z,4.65
2019-02-15T06:51:20.429Z,4.65
2019-02-15T06:52:20.450Z,4.65
2019-02-15T06:53:20.413Z,4.70
2019-02-15T06:54:20.407Z,4.62
2019-02-15T06:55:20.439Z,4.61
2019-02-15T06:56:20.376Z,4.67
2019-02-15T06:57:20.367Z,4.61
2019-02-15T06:58:20.347Z,4.69
2019-02-15T06:59:20.363Z,4.83
2019-02-15T07:00:20.325Z,4.77
2019-02-15T07:01:20.318Z,4.79
2019-02-15T07:02:20.311Z,4.73
2019-02-15T07:03:20.307Z,4.77
2019-02-15T07:04:20.302Z,4.83
2019-02-15T07:05:20.281Z,4.83
2019-02-15T07:06:20.265Z,4.83
2019-02-15T07:07:20.271Z,4.86
2019-02-15T07:08:20.243Z,4.84
2019-02-15T07:09:20.244Z,4.92
2019-02-15T07:10:20.219Z,4.84
2019-02-15T07:11:20.209Z,4.79
2019-02-15T07:12:20.196Z,4.95
2019-02-15T07:13:20.182Z,5.05
2019-02-15T07:14:20.930Z,5.05
2019-02-15T07:15:20.157Z,5.07
2019-02-15T07:16:20.146Z,5.19
2019-02-15T07:17:20.140Z,5.16
2019-02-15T07:18:20.123Z,5.30
2019-02-15T07:19:27.511Z,5.38
2019-02-15T07:20:27.421Z,5.35
2019-02-15T07:21:27.403Z,5.52
2019-02-15T07:22:27.474Z,5.49
2019-02-15T07:23:20.371Z,5.60
2019-02-15T07:24:28.683Z,5.63
2019-02-15T07:25:20.410Z,5.64
2019-02-15T07:26:20.331Z,5.74
2019-02-15T07:27:20.323Z,5.71
2019-02-15T07:28:20.120Z,5.70
2019-02-15T07:29:27.384Z,5.91
2019-02-15T07:30:20.208Z,5.83
2019-02-15T07:31:20.029Z,5.93
2019-02-15T07:33:30.639Z,6.14
2019-02-15T07:34:30.598Z,6.22
2019-02-15T07:35:37.617Z,6.32
2019-02-15T07:36:37.842Z,6.40
2019-02-15T07:37:30.530Z,6.40
2019-02-15T07:38:30.530Z,6.48
2019-02-15T07:39:30.535Z,6.53
2019-02-15T07:40:30.404Z,6.56
2019-02-15T07:41:30.499Z,6.62
2019-02-15T07:42:30.211Z,6.71
2019-02-15T07:43:37.483Z,6.90
2019-02-15T07:44:38.783Z,6.95
2019-02-15T07:45:30.437Z,6.99
2019-02-15T07:46:30.274Z,7.15
2019-02-15T07:47:30.397Z,7.17
2019-02-15T07:48:30.397Z,7.31
2019-02-15T07:49:30.200Z,7.37
2019-02-15T07:50:38.463Z,7.52
2019-02-15T07:52:20.686Z,7.74
2019-02-15T07:53:27.645Z,7.90
2019-02-15T07:54:27.826Z,8.03
2019-02-15T07:55:27.635Z,8.22
2019-02-15T07:56:29.834Z,8.28
2019-02-15T07:59:45.111Z,8.86
2019-02-15T08:00:45.112Z,8.88
2019-02-15T08:01:52.087Z,8.90
2019-02-15T08:03:55.557Z,9.31
2019-02-15T08:06:04.577Z,9.68
2019-02-15T08:07:12.295Z,9.82
2019-02-15T08:08:11.501Z,10.01
2019-02-15T08:09:11.554Z,10.21
2019-02-15T08:10:12.098Z,10.28
2019-02-15T08:11:11.551Z,10.39
2019-02-15T08:12:13.130Z,10.52
2019-02-15T08:13:12.394Z,10.73
2019-02-15T08:14:14.767Z,10.70
2019-02-15T08:15:12.924Z,10.94
2019-02-15T08:16:11.457Z,11.02
2019-02-15T08:17:12.445Z,11.07
2019-02-15T08:18:04.322Z,11.29
2019-02-15T08:19:12.684Z,11.38
2019-02-15T08:20:04.546Z,11.49
2019-02-15T08:21:04.175Z,11.62
2019-02-15T08:22:04.182Z,11.72
2019-02-15T08:23:13.010Z,11.83
2019-02-15T08:24:12.915Z,11.94
2019-02-15T08:26:15.195Z,12.11
2019-02-15T08:27:14.897Z,12.27
2019-02-15T08:29:53.319Z,12.45
2019-02-15T08:30:53.295Z,12.54
2019-02-15T08:31:53.295Z,12.54
2019-02-15T08:32:53.290Z,12.54
2019-02-15T08:33:53.626Z,12.60
2019-02-15T08:34:53.209Z,12.62
2019-02-15T08:35:53.192Z,12.54
2019-02-15T08:36:53.020Z,12.44
2019-02-15T08:37:53.831Z,12.46
2019-02-15T08:38:53.168Z,12.54
2019-02-15T08:39:53.165Z,12.70
2019-02-15T08:40:52.886Z,12.74
2019-02-15T08:42:01.265Z,12.84
2019-02-15T08:42:55.850Z,12.92
2019-02-15T08:43:52.917Z,12.96
2019-02-15T08:44:52.826Z,13.03
2019-02-15T08:46:00.521Z,13.14
2019-02-15T08:46:53.799Z,13.21
2019-02-15T08:47:52.789Z,13.22
2019-02-15T08:49:00.097Z,13.27
2019-02-15T08:49:53.107Z,13.29
2019-02-15T08:50:53.016Z,13.38
2019-02-15T08:51:53.068Z,13.40
2019-02-15T08:52:54.986Z,13.44
2019-02-15T08:53:53.035Z,13.49
2019-02-15T08:54:52.922Z,13.51
2019-02-15T08:55:52.879Z,13.74
2019-02-15T08:56:52.721Z,13.94
2019-02-15T08:57:53.035Z,14.07
2019-02-15T08:58:52.706Z,14.27
2019-02-15T08:59:52.664Z,14.39
2019-02-15T09:00:52.660Z,14.39
2019-02-15T09:01:52.647Z,14.61
2019-02-15T09:02:52.636Z,14.88
2019-02-15T09:03:52.625Z,14.95
2019-02-15T09:04:52.600Z,15.33
2019-02-15T09:05:52.606Z,15.61
2019-02-15T09:06:52.571Z,15.68
2019-02-15T09:07:52.560Z,15.97
2019-02-15T09:08:52.565Z,16.11
2019-02-15T09:09:52.572Z,16.25
2019-02-15T09:10:52.540Z,16.33
2019-02-15T09:11:52.542Z,16.35
2019-02-15T09:12:52.513Z,16.48
2019-02-15T09:13:52.497Z,16.35
2019-02-15T09:14:52.490Z,16.35
2019-02-15T09:15:52.538Z,16.31
2019-02-15T09:16:52.473Z,16.25
2019-02-15T09:17:52.475Z,16.40
2019-02-15T09:18:52.443Z,16.41
2019-02-15T09:19:52.439Z,16.52
2019-02-15T09:20:52.436Z,16.67
2019-02-15T09:21:53.338Z,16.78
2019-02-15T09:22:52.414Z,16.89
2019-02-15T09:23:52.433Z,16.99
2019-02-15T09:24:52.376Z,16.92
2019-02-15T09:25:52.377Z,16.98
2019-02-15T09:26:52.368Z,16.95
2019-02-15T09:27:52.348Z,16.95
2019-02-15T09:28:52.352Z,16.99
2019-02-15T09:29:52.325Z,17.03
2019-02-15T09:30:52.326Z,16.93
2019-02-15T09:31:52.291Z,16.98
2019-02-15T09:32:52.288Z,17.04
2019-02-15T09:33:52.836Z,16.99
2019-02-15T09:34:52.262Z,16.98
2019-02-15T09:35:52.339Z,16.95
2019-02-15T09:36:52.247Z,16.81
2019-02-15T09:37:52.219Z,16.88
2019-02-15T09:38:52.897Z,17.00
2019-02-15T09:39:52.206Z,16.98
2019-02-15T09:40:52.194Z,16.98
2019-02-15T09:41:52.189Z,16.95
2019-02-15T09:42:52.214Z,16.96
2019-02-15T09:43:52.158Z,16.86
2019-02-15T09:44:52.158Z,16.93
2019-02-15T09:45:52.141Z,17.08
2019-02-15T09:46:59.510Z,17.08
2019-02-15T09:47:52.463Z,17.14
2019-02-15T09:48:52.346Z,17.23
2019-02-15T09:49:52.494Z,17.40
2019-02-15T09:50:52.397Z,17.46
2019-02-15T09:51:52.524Z,17.76
2019-02-15T09:52:52.438Z,17.82
2019-02-15T09:53:52.364Z,18.03
2019-02-15T09:54:52.421Z,18.02
2019-02-15T09:55:52.355Z,18.02
2019-02-15T09:56:52.306Z,18.07
2019-02-15T09:57:52.167Z,18.19
2019-02-15T09:58:52.275Z,18.36
2019-02-15T09:59:52.306Z,18.44
2019-02-15T10:00:52.158Z,18.64
2019-02-15T10:01:52.115Z,18.64
2019-02-15T10:02:51.982Z,18.70
2019-02-15T10:03:52.236Z,18.77
2019-02-15T10:04:52.255Z,18.90
2019-02-15T10:05:51.930Z,18.99
2019-02-15T10:06:51.943Z,18.94
2019-02-15T10:07:51.914Z,18.76
2019-02-15T10:08:51.880Z,18.67
2019-02-15T10:09:51.889Z,18.74
2019-02-15T10:10:51.851Z,18.77
2019-02-15T10:11:51.938Z,18.77
2019-02-15T10:12:51.847Z,18.73
2019-02-15T10:13:51.829Z,18.80
2019-02-15T10:14:51.876Z,18.80
2019-02-15T10:15:51.855Z,18.84
2019-02-15T10:16:51.872Z,18.79
2019-02-15T10:17:51.786Z,18.99
2019-02-15T10:18:51.791Z,18.97
2019-02-15T10:19:51.756Z,18.99
2019-02-15T10:20:51.807Z,19.06
2019-02-15T10:21:51.747Z,18.99
2019-02-15T10:22:51.802Z,19.01
2019-02-15T10:23:51.743Z,18.98
2019-02-15T10:24:51.733Z,18.99
2019-02-15T10:25:51.697Z,19.06
2019-02-15T10:26:51.705Z,18.98
2019-02-15T10:27:51.659Z,19.05
2019-02-15T10:28:51.667Z,19.05
2019-02-15T10:30:02.237Z,19.02
2019-02-15T10:30:51.981Z,19.17
2019-02-15T10:31:51.956Z,19.05
2019-02-15T10:32:51.929Z,18.95
2019-02-15T10:33:51.901Z,18.95
2019-02-15T10:34:51.773Z,18.76
2019-02-15T10:35:51.628Z,18.74
2019-02-15T10:36:51.944Z,18.67
2019-02-15T10:37:51.602Z,18.67
2019-02-15T10:38:51.561Z,18.59
2019-02-15T10:39:51.534Z,18.67
2019-02-15T10:40:51.543Z,18.70
2019-02-15T10:41:51.530Z,18.68
2019-02-15T10:42:51.495Z,18.74
2019-02-15T10:43:51.481Z,18.84
2019-02-15T10:44:51.471Z,18.87
2019-02-15T10:45:51.473Z,18.92
2019-02-15T10:46:51.489Z,18.99
2019-02-15T10:47:51.451Z,19.05
2019-02-15T10:48:51.442Z,19.14
2019-02-15T10:49:51.460Z,19.17
2019-02-15T10:50:51.418Z,19.18
2019-02-15T10:51:51.431Z,19.25
2019-02-15T10:52:51.402Z,19.36
2019-02-15T10:53:51.371Z,19.38
2019-02-15T10:54:51.370Z,19.33
2019-02-15T10:55:51.350Z,19.10
2019-02-15T10:56:51.340Z,18.86
2019-02-15T10:57:52.347Z,18.59
2019-02-15T10:58:51.311Z,18.52
2019-02-15T10:59:51.310Z,18.50
2019-02-15T11:00:51.887Z,18.43
2019-02-15T11:01:51.287Z,18.40
2019-02-15T11:02:51.279Z,18.39
2019-02-15T11:03:51.289Z,18.25
2019-02-15T11:04:51.242Z,18.36
2019-02-15T11:05:51.241Z,18.31
2019-02-15T11:06:51.218Z,18.36
2019-02-15T11:07:51.218Z,18.34
2019-02-15T11:08:51.206Z,18.46
2019-02-15T11:09:51.207Z,18.47
2019-02-15T11:10:51.202Z,18.46
2019-02-15T11:11:51.185Z,18.55
2019-02-15T11:12:51.183Z,18.62
2019-02-15T11:13:51.153Z,18.62
2019-02-15T11:14:51.130Z,18.72
2019-02-15T11:15:51.116Z,18.65
2019-02-15T11:16:51.111Z,18.59
2019-02-15T11:17:51.128Z,18.61
2019-02-15T11:18:51.102Z,18.50
2019-02-15T11:19:51.106Z,18.59
2019-02-15T11:20:51.063Z,18.74
2019-02-15T11:21:51.063Z,18.77
2019-02-15T11:22:51.061Z,18.87
2019-02-15T11:23:51.027Z,18.91
2019-02-15T11:24:51.064Z,18.91
2019-02-15T11:25:51.023Z,18.76
2019-02-15T11:26:50.994Z,18.67
2019-02-15T11:27:51.049Z,18.67
2019-02-15T11:28:51.002Z,18.65
2019-02-15T11:29:51.035Z,18.43
2019-02-15T11:30:50.970Z,18.40
2019-02-15T11:31:50.987Z,18.49
2019-02-15T11:32:50.949Z,18.46
2019-02-15T11:33:51.172Z,18.46
2019-02-15T11:34:59.268Z,18.43
2019-02-15T11:35:51.160Z,18.42
2019-02-15T11:36:51.210Z,18.42
2019-02-15T11:37:51.755Z,18.36
2019-02-15T11:38:51.517Z,18.37
2019-02-15T11:39:50.884Z,18.43
2019-02-15T11:40:59.211Z,18.37
2019-02-15T11:41:51.107Z,18.46
2019-02-15T11:42:51.074Z,18.39
2019-02-15T11:43:58.204Z,18.40
2019-02-15T11:44:51.062Z,18.39
2019-02-15T11:45:58.137Z,18.36
2019-02-15T11:46:56.767Z,18.36
2019-02-15T11:47:51.120Z,18.61
2019-02-15T11:48:50.788Z,18.76
2019-02-15T11:49:50.728Z,18.72
2019-02-15T11:50:50.733Z,18.58
2019-02-15T11:51:50.789Z,18.55
2019-02-15T11:52:51.505Z,18.57
2019-02-15T11:53:50.694Z,18.72
2019-02-15T11:54:50.675Z,18.55
2019-02-15T11:55:50.682Z,18.57
2019-02-15T11:59:12.305Z,18.39
2019-02-15T12:02:28.905Z,18.28
2019-02-15T12:03:20.887Z,18.28
2019-02-15T12:04:20.543Z,18.15
2019-02-15T12:05:21.181Z,18.15
2019-02-15T12:06:19.660Z,18.10
2019-02-15T12:07:20.229Z,18.06
2019-02-15T12:08:19.644Z,18.02
2019-02-15T12:09:19.617Z,18.07
2019-02-15T12:10:19.593Z,18.07
2019-02-15T12:11:19.620Z,18.03
2019-02-15T12:12:19.686Z,18.00
2019-02-15T12:13:19.592Z,18.02
2019-02-15T12:14:20.252Z,18.02
2019-02-15T12:15:19.582Z,18.09
2019-02-15T12:16:19.566Z,17.88
2019-02-15T12:17:20.285Z,17.78
2019-02-15T12:18:19.564Z,17.67
2019-02-15T12:19:19.536Z,17.50
2019-02-15T12:20:19.511Z,17.36
2019-02-15T12:21:19.530Z,17.41
2019-02-15T12:22:26.477Z,17.44
2019-02-15T12:23:19.460Z,17.46
2019-02-15T12:24:19.440Z,17.41
2019-02-15T12:25:19.424Z,17.26
2019-02-15T12:26:19.417Z,17.33
2019-02-15T12:27:19.401Z,17.25
2019-02-15T12:28:19.398Z,17.06
2019-02-15T12:29:19.377Z,16.99
2019-02-15T12:30:19.370Z,16.92
2019-02-15T12:31:19.379Z,17.10
2019-02-15T12:32:26.388Z,17.13
2019-02-15T12:33:19.361Z,17.18
2019-02-15T12:34:19.330Z,17.26
2019-02-15T12:35:19.315Z,17.43
2019-02-15T12:36:19.308Z,17.47
2019-02-15T12:37:19.288Z,17.46
2019-02-15T12:38:19.287Z,17.53
2019-02-15T12:39:19.280Z,17.54
2019-02-15T12:40:19.288Z,17.43
2019-02-15T12:41:19.242Z,17.36
2019-02-15T12:42:19.231Z,17.46
2019-02-15T12:43:19.253Z,17.28
2019-02-15T12:44:19.206Z,17.29
2019-02-15T12:45:19.212Z,17.29
2019-02-15T12:46:19.195Z,17.40
2019-02-15T12:47:19.187Z,17.40
2019-02-15T12:48:19.234Z,17.29
2019-02-15T12:49:19.217Z,17.26
2019-02-15T12:50:19.191Z,17.35
2019-02-15T12:51:19.167Z,17.41
2019-02-15T12:52:19.187Z,17.26
2019-02-15T12:53:19.195Z,17.25
2019-02-15T12:54:19.179Z,17.22
2019-02-15T12:55:19.150Z,17.18
2019-02-15T12:56:19.100Z,17.07
2019-02-15T12:57:19.835Z,17.00
2019-02-15T12:58:19.108Z,17.08
2019-02-15T12:59:19.127Z,16.99
2019-02-15T13:00:19.106Z,16.90
2019-02-15T13:01:19.020Z,17.03
2019-02-15T13:02:19.042Z,16.96
2019-02-15T13:03:19.825Z,17.03
2019-02-15T13:04:19.053Z,16.95
2019-02-15T13:05:18.995Z,16.90
2019-02-15T13:06:28.230Z,16.89
2019-02-15T13:07:19.986Z,16.80
2019-02-15T13:08:18.981Z,16.81
2019-02-15T13:09:18.991Z,16.81
2019-02-15T13:10:18.965Z,16.75
2019-02-15T13:11:18.930Z,16.63
2019-02-15T13:12:18.931Z,16.53
2019-02-15T13:13:18.896Z,16.35
2019-02-15T13:14:18.928Z,16.30
2019-02-15T13:15:18.882Z,16.16
2019-02-15T13:16:18.878Z,16.11
2019-02-15T13:17:24.797Z,16.00
2019-02-15T13:18:19.839Z,16.00
2019-02-15T13:19:18.845Z,15.97
2019-02-15T13:20:18.874Z,15.93
2019-02-15T13:21:20.745Z,15.88
2019-02-15T13:22:20.222Z,15.79